createdAt,value
2022-11-08T00:02:28.305Z,25.70
2022-11-08T00:07:50.143Z,22.90
2022-11-08T00:13:12.022Z,25.50
2022-11-08T00:18:15.424Z,27.50
2022-11-08T00:23:19.013Z,25.50
2022-11-08T00:28:22.321Z,24.60
2022-11-08T00:33:25.859Z,27.50
2022-11-08T00:38:28.944Z,25.30
2022-11-08T00:43:32.381Z,20.70
2022-11-08T00:48:35.679Z,25.80
2022-11-08T00:53:40.559Z,22.20
2022-11-08T00:58:44.143Z,24.10
2022-11-08T01:03:48.559Z,24.30
2022-11-08T01:08:52.489Z,25.20
2022-11-08T01:14:00.736Z,20.40
2022-11-08T01:19:04.625Z,21.00
2022-11-08T01:24:08.311Z,23.60
2022-11-08T01:29:11.431Z,23.30
2022-11-08T01:34:14.567Z,19.70
2022-11-08T01:39:17.636Z,17.50
2022-11-08T01:44:21.955Z,19.70
2022-11-08T01:49:45.012Z,20.90
2022-11-08T01:55:11.556Z,19.40
2022-11-08T02:00:16.476Z,22.30
2022-11-08T02:05:26.089Z,25.50
2022-11-08T02:10:34.974Z,24.40
2022-11-08T02:15:38.671Z,20.20
2022-11-08T02:20:58.790Z,30.90
2022-11-08T02:26:02.428Z,26.80
2022-11-08T02:31:07.836Z,23.60
2022-11-08T02:36:15.994Z,24.40
2022-11-08T02:41:19.811Z,20.50
2022-11-08T02:46:23.098Z,23.10
2022-11-08T02:51:26.360Z,22.10
2022-11-08T02:56:30.380Z,19.30
2022-11-08T03:01:33.728Z,19.40
2022-11-08T03:06:37.101Z,21.80
2022-11-08T03:11:40.332Z,20.00
2022-11-08T03:16:43.523Z,23.20
2022-11-08T03:21:46.751Z,23.00
2022-11-08T03:26:49.936Z,24.10
2022-11-08T03:31:53.150Z,22.10
2022-11-08T03:36:56.348Z,24.10
2022-11-08T03:42:03.235Z,28.40
2022-11-08T03:47:06.417Z,26.60
2022-11-08T03:52:09.666Z,28.50
2022-11-08T03:57:12.885Z,19.80
2022-11-08T04:02:16.162Z,23.00
2022-11-08T04:07:19.513Z,23.90
2022-11-08T04:12:42.281Z,23.30
2022-11-08T04:18:14.501Z,22.90
2022-11-08T04:23:18.748Z,25.00
2022-11-08T04:28:25.419Z,27.40
2022-11-08T04:33:29.306Z,22.70
2022-11-08T04:38:32.900Z,19.20
2022-11-08T04:43:36.247Z,20.50
2022-11-08T04:48:40.127Z,19.80
2022-11-08T04:53:43.328Z,26.20
2022-11-08T04:58:52.314Z,21.60
2022-11-08T05:03:56.187Z,24.40
2022-11-08T05:09:00.398Z,19.80
2022-11-08T05:14:03.558Z,23.10
2022-11-08T05:19:11.926Z,25.80
2022-11-08T05:24:18.111Z,25.60
2022-11-08T05:29:21.320Z,21.00
2022-11-08T05:34:25.037Z,25.40
2022-11-08T05:39:31.913Z,17.80
2022-11-08T05:44:35.639Z,22.00
2022-11-08T05:49:38.793Z,19.20
2022-11-08T05:54:42.352Z,19.60
2022-11-08T05:59:46.109Z,21.70
2022-11-08T06:04:50.178Z,23.90
2022-11-08T06:09:53.375Z,27.80
2022-11-08T06:14:56.555Z,24.60
2022-11-08T06:19:59.994Z,23.40
2022-11-08T06:25:04.027Z,27.80
2022-11-08T06:30:08.481Z,22.50
2022-11-08T06:35:11.785Z,18.80
2022-11-08T06:40:15.264Z,24.20
2022-11-08T06:45:18.486Z,19.90
2022-11-08T06:50:21.721Z,19.90
2022-11-08T06:55:25.438Z,23.40
2022-11-08T07:00:29.474Z,18.90
2022-11-08T07:05:34.704Z,23.20
2022-11-08T07:10:40.998Z,21.00
2022-11-08T07:15:45.878Z,21.80
2022-11-08T07:20:49.252Z,21.30
2022-11-08T07:25:53.409Z,23.90
2022-11-08T07:31:05.025Z,19.10
2022-11-08T07:36:08.857Z,22.70
2022-11-08T07:41:12.150Z,21.80
2022-11-08T07:46:15.459Z,21.30
2022-11-08T07:51:19.204Z,21.10
2022-11-08T07:56:22.765Z,17.70
2022-11-08T08:01:26.189Z,19.30
2022-11-08T08:06:29.465Z,19.00
2022-11-08T08:11:33.941Z,14.80
2022-11-08T08:16:38.238Z,20.90
2022-11-08T08:21:41.802Z,17.00
2022-11-08T08:26:45.102Z,15.90
2022-11-08T08:31:49.323Z,15.50
2022-11-08T08:36:52.565Z,16.20
2022-11-08T08:41:55.692Z,17.30
2022-11-08T08:46:58.903Z,13.10
2022-11-08T08:52:02.125Z,14.50
2022-11-08T08:57:05.349Z,15.60
2022-11-08T09:02:10.946Z,14.30
2022-11-08T09:07:14.218Z,17.70
2022-11-08T09:12:17.437Z,17.50
2022-11-08T09:17:20.807Z,18.90
2022-11-08T09:22:24.346Z,16.60
2022-11-08T09:27:29.784Z,21.20
2022-11-08T09:32:59.123Z,16.70
2022-11-08T09:37:56.672Z,18.90
2022-11-08T09:43:04.731Z,16.90
2022-11-08T09:48:28.495Z,13.40
2022-11-08T09:53:35.596Z,17.70
2022-11-08T09:58:54.605Z,18.40
2022-11-08T10:04:02.003Z,15.10
2022-11-08T10:09:20.773Z,13.80
2022-11-08T10:14:48.086Z,15.20
2022-11-08T10:20:25.946Z,24.90
2022-11-08T10:25:54.590Z,15.70
2022-11-08T10:30:57.916Z,17.80
2022-11-08T10:36:13.818Z,18.40
2022-11-08T10:41:47.735Z,17.20
2022-11-08T10:46:57.770Z,13.80
2022-11-08T10:52:13.434Z,18.10
2022-11-08T10:57:32.010Z,17.60
2022-11-08T11:02:35.825Z,15.60
2022-11-08T11:07:39.149Z,13.20
2022-11-08T11:12:42.805Z,15.10
2022-11-08T11:17:47.561Z,15.80
2022-11-08T11:22:53.539Z,18.60
2022-11-08T11:27:59.583Z,13.90
2022-11-08T11:33:06.999Z,14.20
2022-11-08T11:38:23.976Z,15.20
2022-11-08T11:43:39.063Z,10.90
2022-11-08T11:49:04.259Z,12.60
2022-11-08T11:54:08.744Z,13.00
2022-11-08T11:59:27.916Z,14.70
2022-11-08T12:04:33.829Z,12.30
2022-11-08T12:09:43.162Z,13.50
2022-11-08T12:14:52.169Z,16.60
2022-11-08T12:20:27.377Z,11.30
2022-11-08T12:25:43.826Z,13.30
2022-11-08T12:31:10.884Z,11.60
2022-11-08T12:36:33.009Z,12.70
2022-11-08T12:41:52.645Z,10.40
2022-11-08T12:47:17.254Z,9.80
2022-11-08T12:52:50.072Z,10.20
2022-11-08T12:57:57.773Z,8.60
2022-11-08T13:03:27.641Z,10.10
2022-11-08T13:08:41.090Z,11.60
2022-11-08T13:13:54.118Z,10.60
2022-11-08T13:18:59.856Z,10.70
2022-11-08T13:24:09.905Z,14.80
2022-11-08T13:29:16.102Z,10.60
2022-11-08T13:34:28.972Z,9.00
2022-11-08T13:40:11.308Z,11.00
2022-11-08T13:45:17.547Z,10.30
2022-11-08T13:50:34.020Z,11.20
2022-11-08T13:55:43.103Z,8.80
2022-11-08T14:00:47.161Z,11.50
2022-11-08T14:05:50.503Z,10.30
2022-11-08T14:11:04.172Z,11.30
2022-11-08T14:16:16.887Z,12.10
2022-11-08T14:21:20.662Z,11.20
2022-11-08T14:26:25.730Z,11.40
2022-11-08T14:31:34.010Z,10.90
2022-11-08T14:36:37.394Z,19.00
2022-11-08T14:41:47.136Z,23.40
2022-11-08T14:46:50.511Z,19.40
2022-11-08T14:52:14.793Z,12.60
2022-11-08T14:57:30.899Z,12.00
2022-11-08T15:02:34.146Z,10.30
2022-11-08T15:07:38.074Z,14.40
2022-11-08T15:12:43.486Z,13.60
2022-11-08T15:17:47.539Z,15.00
2022-11-08T15:22:55.466Z,14.50
2022-11-08T15:28:23.558Z,18.00
2022-11-08T15:33:36.971Z,15.60
2022-11-08T15:38:42.738Z,16.00
2022-11-08T15:43:45.982Z,14.40
2022-11-08T15:48:57.016Z,16.80
2022-11-08T15:54:00.419Z,15.20
2022-11-08T15:59:05.339Z,20.60
2022-11-08T16:04:13.769Z,21.80
2022-11-08T16:09:17.022Z,19.90
2022-11-08T16:14:24.309Z,21.50
2022-11-08T16:19:28.751Z,29.70
2022-11-08T16:24:31.909Z,23.80
2022-11-08T16:29:36.181Z,25.40
2022-11-08T16:34:39.475Z,26.70
2022-11-08T16:39:42.876Z,28.00
2022-11-08T16:44:46.029Z,21.40
2022-11-08T16:49:51.472Z,18.30
2022-11-08T16:54:55.202Z,20.20
2022-11-08T16:59:58.373Z,19.80
2022-11-08T17:05:01.510Z,19.70
2022-11-08T17:10:05.318Z,17.20
2022-11-08T17:15:12.791Z,17.30
2022-11-08T17:20:18.123Z,17.50
2022-11-08T17:25:23.720Z,22.50
2022-11-08T17:30:27.146Z,16.10
2022-11-08T17:35:30.537Z,17.80
2022-11-08T17:40:33.960Z,15.30
2022-11-08T17:45:37.283Z,15.90
2022-11-08T17:50:40.494Z,16.60
2022-11-08T17:55:43.926Z,21.20
2022-11-08T18:00:47.935Z,20.20
2022-11-08T18:05:59.463Z,19.60
2022-11-08T18:11:03.926Z,15.10
2022-11-08T18:16:08.322Z,18.40
2022-11-08T18:21:12.615Z,18.10
2022-11-08T18:26:17.633Z,13.60
2022-11-08T18:31:23.053Z,16.50
2022-11-08T18:36:29.452Z,15.10
2022-11-08T18:41:34.384Z,15.00
2022-11-08T18:46:41.833Z,15.50
2022-11-08T18:51:52.782Z,16.30
2022-11-08T18:56:56.961Z,16.80
2022-11-08T19:02:01.682Z,16.10
2022-11-08T19:07:05.060Z,17.60
2022-11-08T19:12:08.568Z,13.40
2022-11-08T19:17:11.915Z,13.70
2022-11-08T19:22:15.360Z,18.40
2022-11-08T19:27:18.541Z,17.00
2022-11-08T19:32:23.529Z,16.60
2022-11-08T19:37:26.869Z,14.80
2022-11-08T19:42:30.075Z,14.20
2022-11-08T19:47:33.294Z,14.50
2022-11-08T19:52:36.638Z,14.80
2022-11-08T19:57:39.828Z,12.90
2022-11-08T20:02:43.044Z,15.60
2022-11-08T20:07:47.483Z,17.10
2022-11-08T20:12:50.933Z,13.70
2022-11-08T20:17:54.094Z,17.90
2022-11-08T20:22:57.791Z,17.20
2022-11-08T20:28:04.958Z,14.10
2022-11-08T20:33:08.134Z,17.80
2022-11-08T20:38:11.521Z,18.00
2022-11-08T20:43:14.949Z,19.10
2022-11-08T20:48:18.979Z,14.10
2022-11-08T20:53:22.609Z,12.00
2022-11-08T20:58:27.845Z,13.40
2022-11-08T21:03:31.136Z,18.50
2022-11-08T21:13:59.543Z,13.70
2022-11-08T21:19:02.825Z,14.00
2022-11-08T21:24:06.943Z,16.50
2022-11-08T21:29:10.515Z,16.90
2022-11-08T21:34:13.684Z,14.20
2022-11-08T21:39:16.878Z,16.70
2022-11-08T21:44:20.714Z,19.10
2022-11-08T21:49:23.989Z,12.90
2022-11-08T21:54:27.133Z,16.70
2022-11-08T21:59:30.320Z,15.20
2022-11-08T22:04:33.530Z,13.30
2022-11-08T22:09:36.700Z,12.00
2022-11-08T22:14:39.923Z,13.50
2022-11-08T22:19:44.094Z,16.30
2022-11-08T22:24:47.774Z,13.10
2022-11-08T22:29:51.542Z,12.80
2022-11-08T22:34:54.665Z,14.80
2022-11-08T22:39:57.851Z,13.10
2022-11-08T22:45:00.979Z,14.30
2022-11-08T22:50:05.513Z,15.20
2022-11-08T22:55:09.338Z,16.10
2022-11-08T23:00:15.614Z,16.20
2022-11-08T23:05:21.603Z,15.10
2022-11-08T23:10:24.853Z,16.90
2022-11-08T23:15:46.507Z,14.80
2022-11-08T23:21:08.735Z,13.70
2022-11-08T23:26:11.909Z,16.70
2022-11-08T23:31:35.324Z,15.60
2022-11-08T23:36:38.632Z,19.00
2022-11-08T23:42:00.628Z,17.90
2022-11-08T23:47:03.804Z,17.00
2022-11-08T23:52:06.961Z,16.30
2022-11-08T23:57:10.167Z,15.20
